Terminal Aerodrome Forecast
Issued by NWS Sterling, VA

Current Version | Previous Version | Text Only | Print | Product List | Glossary Off
Versions: 1 2 3 4 5 6 7 8 9 10 11 12 13 14 15 16 17 18 19 20

068
FTUS41 KLWX 220940 AAB
TAFDCA
TAF AMD
KDCA 220940Z 2210/2306 36006KT 6SM -SHRA BR OVC010
     FM221500 36007KT P6SM VCSH OVC025
     FM221800 01007KT 6SM -SHRA BR OVC025
     FM230200 35005KT 6SM -SHRA BR OVC040=

USA.gov is the U.S. government's official web portal to all federal, state and local government web resources and services.